Time;durP1;ratioP1;P1;durP2;ratioP2;P2;SDS_P1;SDS_P2;PMS_P1;PMS_P2;Temp;Humidity;BMP_temperature;BMP_pressure;BME280_temperature;BME280_humidity;BME280_pressure;Samples;Min_cycle;Max_cycle;Signal;HPM_P1;HPM_P2
2022/07/23 00:01:02;;;;;;;11.73;9.28;;;;;;;20.90;72.66;100290.70;2904437;78;20987;-87
2022/07/23 00:05:04;;;;;;;10.68;8.65;;;;;;;20.86;72.53;100288.93;2980980;79;20962;-88
2022/07/23 00:09:05;;;;;;;14.80;8.85;;;;;;;20.80;72.27;100282.42;2948834;79;20970;-87
2022/07/23 00:13:06;;;;;;;14.47;8.33;;;;;;;20.68;72.39;100280.72;2960646;79;20928;-88
2022/07/23 00:17:07;;;;;;;8.75;7.80;;;;;;;20.64;72.58;100288.90;2952568;79;21038;-88
2022/07/23 00:21:08;;;;;;;15.93;8.90;;;;;;;20.59;72.59;100287.27;2984230;78;20932;-85
2022/07/23 00:25:10;;;;;;;9.73;8.15;;;;;;;20.56;72.75;100284.95;2936130;79;20927;-87
2022/07/23 00:29:11;;;;;;;16.05;9.15;;;;;;;20.41;73.48;100295.28;2971701;79;21083;-87
2022/07/23 00:33:12;;;;;;;14.30;8.80;;;;;;;20.24;74.03;100294.69;2937501;81;20986;-86
2022/07/23 00:37:13;;;;;;;12.03;8.38;;;;;;;20.19;74.11;100293.08;2968026;79;20975;-86
2022/07/23 00:41:14;;;;;;;15.78;8.13;;;;;;;20.15;74.63;100294.48;2949601;79;21009;-86
2022/07/23 00:45:15;;;;;;;9.78;8.88;;;;;;;20.17;74.71;100283.47;2937007;79;20927;-86
2022/07/23 00:49:16;;;;;;;11.53;8.73;;;;;;;20.11;75.73;100288.61;2991091;78;20990;-86
2022/07/23 00:53:19;;;;;;;11.78;9.40;;;;;;;20.09;75.57;100301.47;2982432;79;20990;-86
2022/07/23 00:57:21;;;;;;;9.60;8.63;;;;;;;20.12;75.59;100297.03;2947036;79;21002;-87
2022/07/23 01:01:22;;;;;;;11.35;9.40;;;;;;;20.15;75.57;100305.78;2845006;81;20987;-86
2022/07/23 01:05:23;;;;;;;16.00;8.93;;;;;;;20.05;76.28;100306.92;2892690;81;21038;-86
2022/07/23 01:09:24;;;;;;;12.35;9.10;;;;;;;19.97;74.76;100307.01;2901421;79;20997;-86
2022/07/23 01:13:25;;;;;;;17.98;11.03;;;;;;;19.91;74.26;100306.38;2882347;81;21491;-86
2022/07/23 01:17:27;;;;;;;10.32;8.78;;;;;;;19.86;74.30;100304.23;2865458;81;21043;-84
2022/07/23 01:21:29;;;;;;;11.43;9.38;;;;;;;19.83;74.80;100297.87;2893004;79;21529;-86
2022/07/23 01:25:30;;;;;;;14.07;11.05;;;;;;;19.73;75.98;100299.50;2912982;81;20974;-87
2022/07/23 01:29:31;;;;;;;17.70;11.45;;;;;;;19.63;76.67;100300.27;2881479;80;21008;-87
2022/07/23 01:33:33;;;;;;;16.60;11.38;;;;;;;19.64;76.37;100296.05;2923706;79;20954;-86
2022/07/23 01:37:34;;;;;;;20.20;11.05;;;;;;;19.61;77.91;100295.58;2924267;79;20934;-86
2022/07/23 01:41:35;;;;;;;15.78;10.03;;;;;;;19.52;80.06;100280.84;2892787;80;20967;-86
2022/07/23 01:45:36;;;;;;;15.98;11.45;;;;;;;19.53;81.01;100273.56;2902885;79;20990;-86
2022/07/23 01:49:37;;;;;;;11.78;10.43;;;;;;;19.49;80.78;100252.89;2931784;79;21001;-86
2022/07/23 01:53:38;;;;;;;11.55;10.18;;;;;;;19.36;80.95;100262.98;2857591;81;21028;-86
2022/07/23 01:57:39;;;;;;;14.33;10.48;;;;;;;19.22;80.72;100257.86;2854713;82;21006;-86
2022/07/23 02:01:41;;;;;;;12.58;9.78;;;;;;;19.28;80.17;100263.56;2899112;81;21031;-87
2022/07/23 02:05:42;;;;;;;11.65;10.45;;;;;;;19.38;79.84;100260.08;2888176;81;21011;-86
2022/07/23 02:09:43;;;;;;;16.48;10.58;;;;;;;19.49;79.12;100258.28;2878549;82;20972;-86
2022/07/23 02:13:44;;;;;;;11.38;10.15;;;;;;;19.53;78.48;100260.08;2836288;82;21015;-86
2022/07/23 02:17:46;;;;;;;11.03;8.88;;;;;;;19.40;77.84;100260.73;2860824;81;20959;-86
2022/07/23 02:21:47;;;;;;;11.70;10.48;;;;;;;19.33;78.03;100261.97;2871265;80;21010;-85
2022/07/23 02:25:48;;;;;;;12.90;11.28;;;;;;;19.36;78.17;100256.73;2894964;81;21047;-86
2022/07/23 02:29:49;;;;;;;10.80;9.38;;;;;;;19.39;78.30;100252.31;2905533;80;20999;-86
2022/07/23 02:33:51;;;;;;;13.28;9.50;;;;;;;19.34;78.81;100241.25;2877593;81;21050;-86
2022/07/23 02:37:52;;;;;;;14.15;9.35;;;;;;;19.35;79.17;100240.22;2870987;81;20988;-87
2022/07/23 02:41:53;;;;;;;11.28;9.53;;;;;;;19.39;78.61;100238.83;2914047;79;21640;-86
2022/07/23 02:45:54;;;;;;;11.57;8.48;;;;;;;19.39;78.78;100233.43;2881286;81;21003;-86
2022/07/23 02:49:55;;;;;;;15.25;11.50;;;;;;;19.38;77.83;100233.11;2902905;79;20995;-87
2022/07/23 02:53:56;;;;;;;11.40;9.20;;;;;;;19.30;78.07;100238.59;2950929;78;21038;-87
2022/07/23 02:57:58;;;;;;;11.83;10.28;;;;;;;18.99;79.38;100233.67;2863885;81;21011;-86
2022/07/23 03:01:59;;;;;;;15.45;10.65;;;;;;;18.87;79.20;100238.63;2904794;80;21010;-87
2022/07/23 03:06:00;;;;;;;12.73;10.48;;;;;;;18.88;79.48;100244.35;2987980;78;20948;-87
2022/07/23 03:10:02;;;;;;;12.88;10.28;;;;;;;18.88;80.22;100245.70;2927031;78;20935;-87
2022/07/23 03:14:03;;;;;;;13.25;9.65;;;;;;;18.81;80.23;100239.34;2991879;78;20911;-87
2022/07/23 03:18:05;;;;;;;15.20;12.63;;;;;;;18.80;81.80;100242.56;2804780;79;21027;-86
2022/07/23 03:22:06;;;;;;;15.40;11.33;;;;;;;18.65;84.38;100238.45;2886346;82;21561;-87
2022/07/23 03:26:07;;;;;;;15.10;10.80;;;;;;;18.50;85.73;100227.63;2882496;81;21063;-84
2022/07/23 03:30:09;;;;;;;17.20;11.78;;;;;;;18.37;87.10;100224.67;2868947;82;21512;-86
2022/07/23 03:34:10;;;;;;;15.85;11.95;;;;;;;18.27;87.78;100224.91;2867389;82;21038;-86
2022/07/23 03:38:12;;;;;;;14.90;11.83;;;;;;;18.33;87.66;100237.67;2869441;81;20952;-87
2022/07/23 03:42:13;;;;;;;16.12;12.15;;;;;;;18.39;87.80;100238.30;2867282;82;20956;-87
2022/07/23 03:46:14;;;;;;;17.27;13.18;;;;;;;18.47;88.09;100234.72;2870569;82;20976;-85
2022/07/23 03:50:15;;;;;;;14.55;11.48;;;;;;;18.60;88.21;100235.98;2841217;80;21035;-86
2022/07/23 03:54:17;;;;;;;17.30;13.05;;;;;;;18.67;87.96;100232.89;2881800;82;21039;-85
2022/07/23 03:58:18;;;;;;;14.40;11.93;;;;;;;18.77;87.50;100233.98;2864415;81;20983;-86
2022/07/23 04:02:19;;;;;;;17.70;12.35;;;;;;;18.96;86.99;100231.28;2873062;81;21062;-86
2022/07/23 04:06:20;;;;;;;15.63;11.55;;;;;;;19.10;87.08;100231.86;2879668;81;20951;-86
2022/07/23 04:10:21;;;;;;;15.38;12.18;;;;;;;19.29;86.38;100240.97;2881773;81;21058;-86
2022/07/23 04:14:22;;;;;;;18.05;13.83;;;;;;;19.56;86.02;100234.10;2841004;81;20975;-86
2022/07/23 04:18:24;;;;;;;24.20;14.10;;;;;;;19.87;85.34;100228.98;2857780;81;20999;-86
2022/07/23 04:22:25;;;;;;;17.17;13.10;;;;;;;20.15;85.49;100231.53;2870956;82;20996;-87
2022/07/23 04:26:26;;;;;;;18.85;12.75;;;;;;;20.42;83.15;100221.84;2877142;81;21039;-86
2022/07/23 04:30:27;;;;;;;16.70;11.57;;;;;;;20.74;81.25;100218.81;2882374;81;21003;-84
2022/07/23 04:34:28;;;;;;;16.27;12.58;;;;;;;21.22;80.36;100207.35;2879210;82;21034;-86
2022/07/23 04:38:29;;;;;;;17.85;13.20;;;;;;;21.67;78.32;100201.59;2852310;82;21411;-86
2022/07/23 04:42:30;;;;;;;18.80;12.37;;;;;;;22.10;75.45;100185.08;2869037;82;21039;-87
2022/07/23 04:46:31;;;;;;;27.45;14.40;;;;;;;22.24;74.96;100177.80;2855192;81;20941;-86
2022/07/23 04:50:33;;;;;;;17.32;12.88;;;;;;;22.38;74.69;100167.00;2840475;81;21036;-87
2022/07/23 04:54:34;;;;;;;14.50;12.03;;;;;;;22.40;74.71;100168.47;2837469;82;21015;-86
2022/07/23 04:58:36;;;;;;;14.83;10.90;;;;;;;22.52;74.56;100158.38;2868107;81;21058;-88
2022/07/23 05:02:37;;;;;;;26.87;12.43;;;;;;;22.57;74.12;100153.16;2847413;82;20976;-88
2022/07/23 05:06:38;;;;;;;16.20;11.50;;;;;;;22.64;73.88;100145.03;2858363;81;20956;-88
2022/07/23 05:10:39;;;;;;;18.05;12.20;;;;;;;22.86;73.65;100132.09;2837543;82;21052;-87
2022/07/23 05:14:40;;;;;;;20.27;12.28;;;;;;;23.21;72.32;100138.59;2860950;82;21820;-87
2022/07/23 05:18:41;;;;;;;12.80;11.50;;;;;;;23.31;71.80;100130.55;2778172;81;21424;-87
2022/07/23 05:22:42;;;;;;;14.25;12.05;;;;;;;23.33;70.68;100118.95;2869781;81;21008;-87
2022/07/23 05:26:43;;;;;;;14.10;11.68;;;;;;;23.31;70.92;100112.91;2877306;82;20988;-87
2022/07/23 05:30:44;;;;;;;19.90;12.23;;;;;;;23.32;71.41;100107.78;2884279;81;21053;-87
2022/07/23 05:34:45;;;;;;;17.67;12.10;;;;;;;23.28;71.66;100116.05;2876560;81;20995;-87
2022/07/23 05:38:47;;;;;;;12.98;10.38;;;;;;;23.29;71.89;100117.72;2800452;82;21048;-87
2022/07/23 05:42:48;;;;;;;13.75;11.00;;;;;;;23.39;72.37;100114.04;2883794;82;20996;-87
2022/07/23 05:46:49;;;;;;;14.70;10.63;;;;;;;23.45;72.58;100109.61;2887187;82;21030;-87
2022/07/23 05:50:50;;;;;;;17.12;10.88;;;;;;;23.53;72.39;100104.77;2769354;83;21005;-87
2022/07/23 05:54:51;;;;;;;9.73;8.65;;;;;;;23.70;72.59;100104.81;2783554;83;21010;-88
2022/07/23 05:58:52;;;;;;;10.55;9.45;;;;;;;24.13;72.00;100106.86;2832406;84;20987;-87
2022/07/23 06:02:53;;;;;;;12.20;9.70;;;;;;;24.70;70.07;100108.69;2764204;82;21795;-88
2022/07/23 06:06:54;;;;;;;12.35;8.45;;;;;;;25.22;67.48;100109.73;2848567;81;20986;-87
2022/07/23 06:10:55;;;;;;;17.37;9.83;;;;;;;25.90;65.26;100099.33;2839092;81;21008;-88
2022/07/23 06:14:56;;;;;;;35.43;18.35;;;;;;;26.36;63.09;100094.24;2831812;81;20978;-87
2022/07/23 06:18:57;;;;;;;21.30;18.92;;;;;;;26.66;61.90;100084.58;2831883;82;20999;-87
2022/07/23 06:22:59;;;;;;;16.42;9.88;;;;;;;26.70;61.95;100078.13;2696432;84;21015;-87
2022/07/23 06:27:00;;;;;;;15.38;10.95;;;;;;;26.90;61.61;100075.03;2831887;81;20955;-87
2022/07/23 06:31:01;;;;;;;11.93;10.28;;;;;;;27.41;59.99;100067.61;2823217;82;21581;-87
2022/07/23 06:35:03;;;;;;;10.80;8.00;;;;;;;27.53;59.42;100063.49;2825444;82;20998;-87
2022/07/23 06:39:04;;;;;;;11.53;8.20;;;;;;;27.32;59.35;100056.80;2848800;81;21537;-87
2022/07/23 06:43:05;;;;;;;12.58;6.97;;;;;;;27.25;58.80;100050.11;2804294;83;21058;-87
2022/07/23 06:47:06;;;;;;;10.75;7.22;;;;;;;26.96;59.77;100054.70;2770872;84;20986;-87
2022/07/23 06:51:07;;;;;;;9.70;8.65;;;;;;;26.75;60.46;100039.23;2864764;80;21107;-86
2022/07/23 06:55:09;;;;;;;9.05;7.53;;;;;;;26.56;61.13;100046.70;2866830;80;21680;-87
2022/07/23 06:59:10;;;;;;;12.15;7.62;;;;;;;26.79;61.64;100046.67;2854214;82;21006;-88
2022/07/23 07:03:12;;;;;;;11.35;7.83;;;;;;;27.10;60.23;100041.05;2853624;80;20951;-89
2022/07/23 07:07:13;;;;;;;9.40;6.62;;;;;;;27.68;59.13;100028.79;2855327;82;21957;-87
2022/07/23 07:11:14;;;;;;;10.32;9.05;;;;;;;28.09;58.03;100028.10;2857318;82;21006;-87
2022/07/23 07:15:15;;;;;;;9.80;7.80;;;;;;;28.56;57.06;100039.78;2867849;81;21030;-86
2022/07/23 07:19:16;;;;;;;12.25;7.62;;;;;;;28.84;56.28;100009.24;2855749;81;21505;-85
2022/07/23 07:23:17;;;;;;;11.28;8.18;;;;;;;29.19;55.83;100017.59;2779681;82;21042;-85
2022/07/23 07:27:19;;;;;;;8.95;7.45;;;;;;;29.39;55.76;100020.27;2854901;82;21021;-92
2022/07/23 07:31:21;;;;;;;9.85;8.83;;;;;;;29.64;55.36;100023.00;2810590;82;30552;-86
2022/07/23 07:35:23;;;;;;;9.70;8.80;;;;;;;29.78;55.00;100016.57;2840940;81;21070;-87
2022/07/23 07:39:24;;;;;;;11.70;9.58;;;;;;;29.91;55.35;100002.96;2853195;82;21046;-87
2022/07/23 07:43:25;;;;;;;9.55;8.15;;;;;;;29.74;54.89;100017.63;2856164;83;20970;-85
2022/07/23 07:47:26;;;;;;;15.68;9.80;;;;;;;29.62;55.04;100019.69;2854110;82;21057;-87
2022/07/23 07:51:28;;;;;;;10.40;8.43;;;;;;;29.38;55.14;100022.73;2845058;82;20987;-84
2022/07/23 07:55:30;;;;;;;11.33;9.18;;;;;;;29.01;55.80;100031.09;2898802;79;21010;-87
2022/07/23 07:59:31;;;;;;;23.40;11.85;;;;;;;29.04;56.35;100050.27;2848690;82;20958;-88
2022/07/23 08:03:32;;;;;;;11.05;9.38;;;;;;;28.96;56.79;100065.78;2884582;81;20947;-89
2022/07/23 08:07:33;;;;;;;10.45;9.45;;;;;;;28.69;56.58;100044.58;2892446;80;21140;-88
2022/07/23 08:11:35;;;;;;;10.63;9.53;;;;;;;28.35;57.43;100024.44;2884729;81;20986;-88
2022/07/23 08:15:36;;;;;;;17.98;8.88;;;;;;;28.15;58.08;100037.77;2913194;79;20998;-87
2022/07/23 08:19:37;;;;;;;12.45;9.95;;;;;;;28.06;58.65;100038.17;2894337;81;21057;-86
2022/07/23 08:23:39;;;;;;;11.57;9.33;;;;;;;28.07;58.14;100033.55;2845783;82;21499;-88
2022/07/23 08:27:41;;;;;;;13.40;9.38;;;;;;;27.92;59.00;100038.23;2888727;80;21006;-90
2022/07/23 08:31:42;;;;;;;16.57;11.45;;;;;;;27.97;59.25;100048.40;2850389;81;21064;-88
2022/07/23 08:35:47;;;;;;;40.38;14.60;;;;;;;28.18;58.71;100044.14;2840214;81;20972;-91
2022/07/23 08:39:48;;;;;;;18.37;15.10;;;;;;;28.36;58.67;100045.24;2857991;81;20995;-91
2022/07/23 08:43:50;;;;;;;17.48;12.70;;;;;;;28.64;57.86;100048.91;2848480;82;20978;-90
2022/07/23 08:47:55;;;;;;;10.80;9.70;;;;;;;28.81;57.54;100045.33;2859248;82;21137;-91
2022/07/23 08:51:56;;;;;;;18.82;14.38;;;;;;;28.89;57.99;100046.28;2895941;80;21534;-87
2022/07/23 08:56:03;;;;;;;10.68;9.33;;;;;;;29.04;57.09;100039.31;2930191;79;21007;-85
2022/07/23 09:00:07;;;;;;;11.45;9.20;;;;;;;29.08;56.84;100039.09;2860809;81;21023;-90
2022/07/23 09:04:08;;;;;;;11.18;9.68;;;;;;;29.26;57.05;100035.73;2885250;82;20998;-92
2022/07/23 09:08:16;;;;;;;11.90;8.50;;;;;;;29.38;56.74;100043.27;2859477;81;21003;-89
2022/07/23 09:12:18;;;;;;;11.38;10.18;;;;;;;29.52;56.40;100061.52;2891045;81;21006;-88
2022/07/23 09:16:28;;;;;;;12.53;9.40;;;;;;;29.69;55.68;100064.17;2860115;82;20999;-86
2022/07/23 09:20:30;;;;;;;12.33;8.90;;;;;;;29.87;56.78;100069.81;2862163;81;21532;-90
2022/07/23 09:24:31;;;;;;;12.05;9.03;;;;;;;29.93;57.24;100074.24;2757623;83;20963;-92
2022/07/23 09:28:32;;;;;;;11.88;8.40;;;;;;;29.96;59.27;100075.65;2860192;82;21377;-90
2022/07/23 09:32:34;;;;;;;10.60;8.88;;;;;;;30.08;58.18;100061.79;2881953;80;20968;-86
2022/07/23 09:36:35;;;;;;;14.20;9.28;;;;;;;30.19;56.45;100064.06;2803610;84;21014;-86
2022/07/23 09:40:37;;;;;;;9.53;8.58;;;;;;;30.20;55.97;100056.12;2842331;82;20971;-88
2022/07/23 09:44:44;;;;;;;13.15;9.40;;;;;;;30.31;54.94;100056.48;2857429;82;21010;-87
2022/07/23 09:48:47;;;;;;;17.92;10.23;;;;;;;30.16;55.39;100054.44;2849501;82;21011;-87
2022/07/23 09:52:50;;;;;;;11.40;9.90;;;;;;;30.35;55.84;100057.61;2808486;82;21007;-87
2022/07/23 09:56:53;;;;;;;13.70;8.88;;;;;;;30.55;54.40;100036.87;2801173;82;21031;-87
2022/07/23 10:00:55;;;;;;;12.55;9.13;;;;;;;30.73;53.80;100058.13;2800728;81;21023;-86
2022/07/23 10:04:57;;;;;;;14.38;10.30;;;;;;;30.53;56.68;100062.38;2765911;83;20971;-93
2022/07/23 10:09:01;;;;;;;22.80;10.53;;;;;;;30.24;59.76;100075.63;2788105;84;20999;-91
2022/07/23 10:13:16;;;;;;;;;;;;;;;29.92;61.35;100089.60;2793909;83;21006;-88
2022/07/23 10:17:06;;;;;;;10.70;9.65;;;;;;;29.56;61.10;100096.09;2784448;85;20133;-87
2022/07/23 10:21:10;;;;;;;12.60;10.40;;;;;;;29.42;61.89;100081.97;2795846;81;21031;-84
2022/07/23 10:25:34;;;;;;;13.00;10.05;;;;;;;29.42;60.84;100081.41;2794650;83;21063;-89
2022/07/23 10:29:41;;;;;;;11.80;10.63;;;;;;;29.36;59.48;100085.97;2817713;82;21063;-88
2022/07/23 10:34:15;;;;;;;11.68;9.40;;;;;;;29.33;59.86;100094.70;2797572;83;21067;-89
2022/07/23 10:38:27;;;;;;;11.00;9.58;;;;;;;29.25;58.99;100108.86;2780565;83;20977;-85
2022/07/23 10:42:33;;;;;;;12.63;9.43;;;;;;;29.08;59.05;100118.48;2749462;84;21051;-87
2022/07/23 10:46:51;;;;;;;12.78;9.48;;;;;;;29.03;61.30;100121.16;2778090;85;21008;-85
2022/07/23 10:51:15;;;;;;;15.75;10.72;;;;;;;28.91;60.87;100115.80;2813303;81;21015;-87
2022/07/23 10:55:28;;;;;;;14.13;11.20;;;;;;;28.89;61.38;100113.87;2886190;79;21007;-93
2022/07/23 10:59:29;;;;;;;11.33;10.15;;;;;;;28.82;62.16;100116.78;2875552;81;21413;-91
2022/07/23 11:03:38;;;;;;;17.77;11.03;;;;;;;28.77;62.54;100101.08;2880763;81;20995;-92
2022/07/23 11:08:05;;;;;;;12.78;10.78;;;;;;;28.75;63.38;100106.53;2890923;79;20996;-91
2022/07/23 11:12:30;;;;;;;11.93;10.32;;;;;;;28.72;63.13;100105.67;2871190;81;21023;-89
2022/07/23 11:16:34;;;;;;;13.88;10.35;;;;;;;28.76;63.19;100113.10;2882142;81;21001;-88
2022/07/23 11:20:34;;;;;;;10.78;9.13;;;;;;;28.89;61.46;100105.13;2862308;79;21675;-92
2022/07/23 11:24:41;;;;;;;12.05;9.95;;;;;;;29.02;62.03;100115.41;2883395;81;21102;-93
2022/07/23 11:28:43;;;;;;;11.45;10.35;;;;;;;29.08;59.76;100102.06;2874672;81;21046;-93
2022/07/23 11:32:44;;;;;;;11.30;10.18;;;;;;;29.20;59.81;100101.41;2878633;81;21062;-89
2022/07/23 11:36:51;;;;;;;10.45;9.35;;;;;;;29.36;59.33;100090.64;2932791;77;21485;-92
2022/07/23 11:40:59;;;;;;;11.35;9.30;;;;;;;29.67;58.37;100078.66;2964467;79;20982;-89
2022/07/23 11:45:00;;;;;;;11.70;10.68;;;;;;;29.91;58.05;100077.80;2959573;79;20986;-90
2022/07/23 11:49:02;;;;;;;11.75;9.70;;;;;;;30.10;57.16;100079.36;2890242;80;20986;-92
2022/07/23 11:53:04;;;;;;;11.50;9.80;;;;;;;30.23;55.27;100085.76;2876790;80;21011;-92
2022/07/23 11:57:05;;;;;;;11.63;9.90;;;;;;;30.18;55.22;100078.87;2805555;81;20999;-92
2022/07/23 12:01:07;;;;;;;10.40;9.48;;;;;;;30.31;56.25;100072.95;2872715;81;21042;-89
2022/07/23 12:05:16;;;;;;;10.72;8.60;;;;;;;30.55;55.94;100067.06;2873176;81;21034;-91
2022/07/23 12:09:17;;;;;;;11.08;9.83;;;;;;;30.66;56.10;100065.77;2871705;81;21093;-87
2022/07/23 12:13:22;;;;;;;9.95;8.70;;;;;;;30.85;55.40;100064.22;2871636;81;20998;-90
2022/07/23 12:17:34;;;;;;;15.20;9.48;;;;;;;30.84;55.20;100057.08;2872311;81;21026;-96
2022/07/23 12:21:35;;;;;;;14.78;11.10;;;;;;;31.02;55.35;100052.21;2866934;81;20995;-89
2022/07/23 12:25:41;;;;;;;11.80;8.83;;;;;;;31.17;54.77;100052.27;2870656;81;21628;-89
2022/07/23 12:29:42;;;;;;;12.37;10.20;;;;;;;31.09;53.78;100050.59;2869344;82;21000;-87
2022/07/23 12:33:44;;;;;;;9.78;8.75;;;;;;;31.03;54.17;100051.95;2817571;81;21000;-94
2022/07/23 12:37:47;;;;;;;10.70;9.63;;;;;;;30.97;53.80;100048.08;2858668;81;21028;-90
2022/07/23 12:41:53;;;;;;;8.70;7.87;;;;;;;31.03;53.85;100047.00;2847317;81;21006;-89
2022/07/23 12:46:10;;;;;;;10.80;9.73;;;;;;;31.20;54.17;100045.45;2849004;81;21046;-89
2022/07/23 12:50:32;;;;;;;12.93;9.90;;;;;;;31.17;53.42;100049.53;2876175;80;21038;-88
2022/07/23 12:54:33;;;;;;;10.15;8.65;;;;;;;31.06;54.72;100045.92;2886799;80;21517;-90
2022/07/23 12:58:51;;;;;;;10.63;9.63;;;;;;;31.32;54.80;100046.02;2865109;81;21547;-91
2022/07/23 13:02:52;;;;;;;9.50;8.38;;;;;;;31.51;54.45;100052.38;2847093;80;21043;-92
2022/07/23 13:06:57;;;;;;;9.98;8.95;;;;;;;31.64;55.00;100051.02;2876670;81;21023;-89
2022/07/23 13:10:59;;;;;;;15.45;9.83;;;;;;;31.59;54.68;100052.40;2883211;81;21003;-86
2022/07/23 13:15:01;;;;;;;12.73;10.05;;;;;;;31.47;54.95;100063.65;2826993;81;20975;-90
2022/07/23 13:19:02;;;;;;;10.35;9.45;;;;;;;31.51;55.14;100064.75;2788587;84;21058;-87
2022/07/23 13:23:05;;;;;;;13.65;9.08;;;;;;;31.37;55.26;100055.40;2783465;84;21011;-89
2022/07/23 13:27:08;;;;;;;11.57;9.70;;;;;;;31.03;56.00;100053.33;2794252;82;21009;-87
2022/07/23 13:31:09;;;;;;;10.18;9.18;;;;;;;30.96;56.09;100050.55;2880887;80;21080;-89
2022/07/23 13:35:11;;;;;;;12.85;10.25;;;;;;;30.92;56.32;100041.48;2880217;81;20984;-90
2022/07/23 13:39:13;;;;;;;10.60;9.50;;;;;;;30.94;56.30;100043.94;2895343;81;20986;-88
2022/07/23 13:43:18;;;;;;;9.73;8.90;;;;;;;30.91;55.64;100037.09;2894331;80;21011;-87
2022/07/23 13:47:19;;;;;;;10.70;9.70;;;;;;;30.76;55.89;100060.34;2876522;81;20995;-90
2022/07/23 13:51:21;;;;;;;10.45;9.43;;;;;;;30.67;56.88;100068.81;2888246;81;20976;-90
2022/07/23 13:55:22;;;;;;;10.15;9.20;;;;;;;30.32;57.35;100081.98;2862654;81;21042;-85
2022/07/23 13:59:23;;;;;;;22.60;12.03;;;;;;;30.22;58.27;100099.19;2962570;79;20966;-89
2022/07/23 14:03:24;;;;;;;12.28;10.18;;;;;;;30.09;61.74;100094.17;2920363;79;21029;-91
2022/07/23 14:07:26;;;;;;;10.98;9.98;;;;;;;30.10;61.77;100123.23;2984667;79;21446;-88
2022/07/23 14:11:27;;;;;;;12.55;11.25;;;;;;;30.06;62.07;100111.39;2961877;78;20946;-89
2022/07/23 14:15:31;;;;;;;11.60;10.50;;;;;;;29.76;62.40;100094.93;2979037;77;21021;-89
2022/07/23 14:19:33;;;;;;;11.60;10.00;;;;;;;29.53;62.96;100096.61;2979766;79;20971;-90
2022/07/23 14:23:34;;;;;;;13.20;11.83;;;;;;;29.60;62.92;100111.77;2944802;79;21021;-86
2022/07/23 14:27:37;;;;;;;11.83;10.72;;;;;;;29.58;62.59;100119.95;2979455;77;20974;-88
2022/07/23 14:31:38;;;;;;;11.70;10.55;;;;;;;29.56;62.46;100120.19;2948770;77;20976;-91
2022/07/23 14:35:39;;;;;;;11.95;10.85;;;;;;;29.61;62.12;100124.91;2976176;78;20970;-88
2022/07/23 14:39:42;;;;;;;13.38;11.57;;;;;;;29.67;61.47;100128.53;2941033;79;20970;-87
2022/07/23 14:43:44;;;;;;;10.78;9.78;;;;;;;29.81;60.69;100130.33;2978876;78;20989;-92
2022/07/23 14:47:47;;;;;;;11.45;10.32;;;;;;;29.75;60.61;100126.17;2964197;79;20978;-89
2022/07/23 14:51:48;;;;;;;10.40;9.50;;;;;;;29.42;60.32;100129.91;2958445;78;21013;-91
2022/07/23 14:55:50;;;;;;;9.90;9.05;;;;;;;29.36;59.84;100130.36;2946758;79;21033;-92
2022/07/23 14:59:51;;;;;;;10.80;9.65;;;;;;;29.13;60.47;100143.22;2947678;79;21017;-92
2022/07/23 15:03:53;;;;;;;15.10;11.12;;;;;;;28.86;61.15;100142.55;2963663;79;20923;-91
2022/07/23 15:07:54;;;;;;;9.85;8.88;;;;;;;28.64;60.88;100141.94;2873653;80;21002;-91
2022/07/23 15:11:55;;;;;;;17.00;9.25;;;;;;;28.62;60.35;100142.73;2932675;79;21533;-92
2022/07/23 15:15:57;;;;;;;11.35;9.83;;;;;;;28.81;60.02;100141.13;2852026;79;21041;-92
2022/07/23 15:19:59;;;;;;;12.30;9.63;;;;;;;29.19;59.16;100147.67;2964225;79;21524;-92
2022/07/23 15:24:00;;;;;;;10.60;9.20;;;;;;;29.21;58.50;100149.61;2955201;79;20999;-91
2022/07/23 15:28:01;;;;;;;9.60;8.80;;;;;;;29.08;58.72;100144.50;2961485;78;20974;-94
2022/07/23 15:32:03;;;;;;;8.43;7.53;;;;;;;28.91;60.03;100148.66;2960053;79;21010;-92
2022/07/23 15:36:06;;;;;;;9.03;7.55;;;;;;;28.72;60.18;100147.53;2891917;80;20976;-91
2022/07/23 15:40:09;;;;;;;8.60;7.75;;;;;;;28.54;60.58;100139.06;2843113;80;21836;-91
2022/07/23 15:44:10;;;;;;;8.65;7.62;;;;;;;28.34;62.01;100143.13;2880574;82;21521;-90
2022/07/23 15:48:12;;;;;;;7.50;6.90;;;;;;;28.15;62.61;100152.05;2958850;78;20952;-89
2022/07/23 15:52:13;;;;;;;7.75;7.05;;;;;;;27.96;63.21;100145.98;2910374;79;20960;-90
2022/07/23 15:56:15;;;;;;;6.83;6.30;;;;;;;27.86;63.68;100148.52;2954149;79;20994;-92
2022/07/23 16:00:16;;;;;;;8.75;7.42;;;;;;;27.66;64.23;100152.51;2945880;79;20942;-92
2022/07/23 16:04:18;;;;;;;9.00;8.13;;;;;;;27.62;64.85;100153.55;2955251;79;21006;-90
2022/07/23 16:08:19;;;;;;;7.53;6.90;;;;;;;27.53;65.04;100152.81;2971608;79;21380;-89
2022/07/23 16:12:20;;;;;;;7.97;7.17;;;;;;;27.41;65.31;100155.52;2969684;78;20967;-91
2022/07/23 16:16:24;;;;;;;7.83;6.60;;;;;;;27.41;65.31;100155.52;2869450;82;20958;-91
2022/07/23 16:20:25;;;;;;;7.75;6.95;;;;;;;27.50;64.89;100163.64;2830162;82;21049;-93
2022/07/23 16:24:27;;;;;;;7.08;6.53;;;;;;;27.30;64.79;100144.40;2871854;81;21046;-89
2022/07/23 16:28:28;;;;;;;7.42;6.72;;;;;;;27.40;64.29;100169.72;2888818;80;20967;-95
2022/07/23 16:32:29;;;;;;;9.63;6.72;;;;;;;27.09;66.07;100190.89;2849580;81;21003;-90
2022/07/23 16:36:30;;;;;;;6.80;6.10;;;;;;;26.83;67.82;100203.10;2903175;80;20987;-93
2022/07/23 16:40:32;;;;;;;7.30;6.67;;;;;;;26.50;68.90;100218.92;2859723;81;20980;-92
2022/07/23 16:44:33;;;;;;;7.58;6.50;;;;;;;26.24;70.13;100222.35;2886418;80;21007;-90
2022/07/23 16:48:35;;;;;;;8.60;6.58;;;;;;;26.23;70.25;100210.59;2868916;81;21054;-92
2022/07/23 16:52:36;;;;;;;6.37;5.60;;;;;;;26.18;70.36;100217.84;2850831;81;21007;-89
2022/07/23 16:56:38;;;;;;;7.00;6.40;;;;;;;26.09;70.08;100225.47;2837519;82;21471;-92
2022/07/23 17:00:39;;;;;;;9.75;6.70;;;;;;;25.87;70.35;100223.76;2804270;78;21081;-90
2022/07/23 17:04:41;;;;;;;6.53;5.92;;;;;;;25.67;71.07;100226.20;2959602;79;20983;-90
2022/07/23 17:08:42;;;;;;;8.33;6.80;;;;;;;25.50;71.62;100230.89;2939332;78;20983;-91
2022/07/23 17:12:43;;;;;;;7.35;6.58;;;;;;;25.49;71.77;100227.86;2945084;78;21045;-90
2022/07/23 17:16:51;;;;;;;8.10;6.53;;;;;;;25.49;72.00;100227.86;2969905;78;20924;-90
2022/07/23 17:20:53;;;;;;;8.68;7.87;;;;;;;25.49;71.97;100233.85;2934809;80;20986;-91
2022/07/23 17:24:54;;;;;;;7.87;7.03;;;;;;;25.44;71.83;100229.56;2914554;79;21029;-90
2022/07/23 17:28:55;;;;;;;6.97;6.20;;;;;;;25.42;71.74;100224.88;2950623;79;20958;-90
2022/07/23 17:32:57;;;;;;;9.23;6.90;;;;;;;25.44;71.72;100222.23;2940902;79;20988;-90
2022/07/23 17:36:59;;;;;;;7.45;6.50;;;;;;;25.47;70.90;100219.61;2976575;79;21062;-90
2022/07/23 17:41:19;;;;;;;9.53;6.30;;;;;;;25.48;70.44;100231.64;2935607;80;21014;-90
2022/07/23 17:45:21;;;;;;;10.00;6.58;;;;;;;25.44;70.83;100233.64;2930521;80;21073;-90
2022/07/23 17:49:32;;;;;;;7.42;6.75;;;;;;;25.34;71.24;100239.09;2905381;81;20998;-91
2022/07/23 17:53:34;;;;;;;7.60;6.33;;;;;;;25.27;71.63;100241.06;2907824;79;20974;-91
2022/07/23 17:57:38;;;;;;;7.65;6.95;;;;;;;25.24;72.19;100246.41;2883891;79;21517;-90
2022/07/23 18:01:41;;;;;;;8.85;6.62;;;;;;;25.26;72.19;100245.36;2933338;79;20959;-90
2022/07/23 18:05:43;;;;;;;5.85;5.35;;;;;;;25.26;72.04;100256.25;3013199;77;21018;-90
2022/07/23 18:09:44;;;;;;;7.53;6.83;;;;;;;25.25;71.91;100254.04;2969527;78;20971;-90
2022/07/23 18:13:46;;;;;;;8.25;6.95;;;;;;;25.21;72.22;100259.12;3002165;77;20951;-90
2022/07/23 18:17:47;;;;;;;7.45;6.75;;;;;;;25.18;72.15;100262.80;3001154;78;20943;-89
2022/07/23 18:21:49;;;;;;;9.18;6.87;;;;;;;25.07;72.42;100265.73;3001276;77;21126;-88
2022/07/23 18:25:50;;;;;;;7.22;6.53;;;;;;;25.02;72.49;100275.09;3002252;77;21014;-90
2022/07/23 18:29:51;;;;;;;7.37;6.47;;;;;;;24.94;71.96;100272.94;2986016;77;21029;-90
2022/07/23 18:33:55;;;;;;;8.23;7.40;;;;;;;24.85;71.88;100289.75;3010546;77;20959;-89